Main page
METAR-TAF:

METAR-TAF

Airports :

Gao International Airport

Gao, Mali

latitude: 16-16N, longitude: 000-03W, elevation: 265 m

METAR: missing

Time: 16:57 (16:57 UTC)

Forecast

The report was made 5 hours and 42 minutes ago, at 11:15 UTC
Forecast valid from 22 at 12 UTC to 23 at 12 UTC
Wind 8 kt from the Southwest with gusts up to 18 kt
Visibility: 8000 m
Few clouds at a height of 4000 ft
Probability 40% :
Temporary
from 22 at 15 UTC to 22 at 20 UTC
Wind 18 kt from variable directions with gusts up to 35 kt
Visibility: 2000 m
Scattered clouds at a height of 3000 ft
Few clouds at a height of 4000 ft, Cumulonimbus.
Blowing dust, thunderstorm, rain

TAF: GAGO 221115Z 2212/2312 22008G18KT 8000 FEW040 PROB40 TEMPO 2215/2220 VRB18G35KT 2000 BLDU TSRA SCT030 FEW040CB

Weather observations and forecasts of more than 4000 airports (METAR and TAF reports).

The available stations are represented by yellow and red dots on the map.

Hover mouse over dot to see the name of the station.

Then click to see weather observations and forecasts.

To change the map : click on the green buttons with a black cross to zoom in, on the green button with a dash to zoom out, or on the green arrows for adjacent maps.


METAR-TAF: